createdAt,value
2022-09-11T00:00:45.814Z,2.63
2022-09-11T00:03:13.781Z,1.90
2022-09-11T00:05:41.831Z,1.98
2022-09-11T00:08:19.460Z,2.00
2022-09-11T00:10:48.600Z,2.10
2022-09-11T00:13:21.525Z,2.10
2022-09-11T00:15:50.360Z,1.98
2022-09-11T00:18:21.894Z,2.03
2022-09-11T00:23:18.719Z,2.25
2022-09-11T00:25:46.989Z,1.83
2022-09-11T00:28:21.952Z,1.90
2022-09-11T00:30:59.455Z,1.85
2022-09-11T00:33:27.649Z,2.22
2022-09-11T00:35:59.948Z,1.92
2022-09-11T00:38:28.692Z,2.00
2022-09-11T00:40:58.020Z,1.92
2022-09-11T00:43:26.771Z,2.10
2022-09-11T00:46:04.349Z,1.67
2022-09-11T00:48:34.334Z,2.08
2022-09-11T00:51:03.987Z,1.80
2022-09-11T00:53:34.329Z,1.83
2022-09-11T00:56:04.034Z,1.60
2022-09-11T00:58:34.252Z,2.10
2022-09-11T01:01:02.540Z,1.73
2022-09-11T01:03:32.234Z,1.52
2022-09-11T01:06:00.412Z,1.80
2022-09-11T01:08:29.157Z,1.30
2022-09-11T01:11:06.261Z,1.85
2022-09-11T01:14:01.288Z,1.63
2022-09-11T01:16:32.050Z,1.58
2022-09-11T01:19:44.264Z,1.70
2022-09-11T01:22:33.987Z,1.70
2022-09-11T01:25:09.377Z,1.60
2022-09-11T01:28:01.056Z,1.70
2022-09-11T01:30:33.958Z,2.80
2022-09-11T01:33:20.025Z,1.80
2022-09-11T01:35:58.589Z,1.67
2022-09-11T01:38:39.239Z,1.65
2022-09-11T01:41:09.286Z,1.70
2022-09-11T01:43:43.754Z,1.63
2022-09-11T01:46:11.571Z,1.58
2022-09-11T01:48:45.529Z,1.50
2022-09-11T01:51:19.094Z,1.70
2022-09-11T01:53:50.240Z,1.73
2022-09-11T01:56:29.801Z,1.65
2022-09-11T01:59:01.531Z,1.92
2022-09-11T02:01:33.234Z,1.60
2022-09-11T02:04:16.815Z,1.50
2022-09-11T02:07:04.381Z,1.90
2022-09-11T02:09:37.725Z,1.60
2022-09-11T02:12:07.733Z,1.48
2022-09-11T02:14:41.436Z,1.65
2022-09-11T02:17:36.706Z,2.15
2022-09-11T02:20:05.635Z,1.73
2022-09-11T02:22:33.849Z,1.77
2022-09-11T02:25:03.113Z,1.70
2022-09-11T02:27:33.829Z,2.10
2022-09-11T02:30:02.507Z,1.70
2022-09-11T02:32:33.117Z,1.80
2022-09-11T02:35:01.208Z,1.70
2022-09-11T02:37:34.816Z,2.30
2022-09-11T02:40:27.257Z,1.73
2022-09-11T02:43:14.344Z,1.92
2022-09-11T02:46:30.072Z,1.88
2022-09-11T02:49:08.445Z,2.22
2022-09-11T02:51:46.717Z,1.60
2022-09-11T02:54:33.950Z,1.88
2022-09-11T02:57:08.105Z,1.70
2022-09-11T02:59:42.724Z,1.60
2022-09-11T03:02:15.437Z,1.40
2022-09-11T03:04:43.104Z,1.83
2022-09-11T03:07:10.937Z,2.13
2022-09-11T03:09:38.618Z,2.05
2022-09-11T03:12:12.768Z,1.80
2022-09-11T03:14:40.949Z,2.13
2022-09-11T03:17:10.128Z,1.90
2022-09-11T03:19:37.841Z,1.88
2022-09-11T03:22:05.447Z,1.77
2022-09-11T03:24:33.651Z,1.80
2022-09-11T03:27:01.595Z,2.20
2022-09-11T03:29:31.848Z,2.00
2022-09-11T03:32:00.950Z,1.70
2022-09-11T03:34:30.088Z,1.92
2022-09-11T03:36:57.677Z,1.88
2022-09-11T03:39:25.628Z,2.00
2022-09-11T03:41:54.376Z,1.80
2022-09-11T03:44:24.188Z,2.42
2022-09-11T03:46:53.170Z,1.90
2022-09-11T03:49:20.732Z,1.80
2022-09-11T03:51:48.386Z,2.13
2022-09-11T03:54:17.796Z,1.90
2022-09-11T03:56:46.844Z,1.65
2022-09-11T03:59:16.165Z,1.88
2022-09-11T04:01:45.393Z,1.50
2022-09-11T04:04:13.276Z,1.50
2022-09-11T04:06:43.954Z,1.83
2022-09-11T04:09:11.781Z,1.80
2022-09-11T04:11:41.458Z,1.30
2022-09-11T04:14:16.220Z,1.30
2022-09-11T04:16:45.002Z,1.63
2022-09-11T04:19:13.494Z,1.80
2022-09-11T04:21:43.780Z,1.92
2022-09-11T04:24:11.569Z,1.52
2022-09-11T04:26:39.144Z,1.88
2022-09-11T04:29:13.254Z,1.58
2022-09-11T04:31:41.444Z,1.67
2022-09-11T04:34:11.537Z,1.90
2022-09-11T04:36:39.658Z,1.52
2022-09-11T04:39:12.014Z,1.50
2022-09-11T04:41:39.604Z,1.58
2022-09-11T04:44:07.234Z,1.70
2022-09-11T04:46:42.592Z,2.00
2022-09-11T04:49:11.650Z,1.60
2022-09-11T04:51:40.673Z,1.50
2022-09-11T04:54:14.849Z,1.77
2022-09-11T04:56:42.771Z,1.30
2022-09-11T04:59:19.803Z,2.17
2022-09-11T05:02:08.368Z,1.65
2022-09-11T05:04:39.993Z,1.70
2022-09-11T05:07:08.288Z,1.77
2022-09-11T05:09:36.002Z,1.83
2022-09-11T05:12:05.243Z,1.70
2022-09-11T05:14:35.979Z,1.90
2022-09-11T05:17:04.327Z,1.60
2022-09-11T05:19:36.352Z,1.80
2022-09-11T05:22:04.472Z,2.00
2022-09-11T05:24:33.229Z,1.55
2022-09-11T05:27:01.377Z,2.00
2022-09-11T05:29:32.455Z,2.22
2022-09-11T05:32:09.735Z,1.55
2022-09-11T05:34:37.821Z,1.65
2022-09-11T05:37:07.943Z,1.85
2022-09-11T05:39:42.099Z,1.95
2022-09-11T05:42:11.896Z,1.98
2022-09-11T05:47:10.823Z,1.77
2022-09-11T05:49:39.767Z,1.80
2022-09-11T05:52:07.924Z,1.90
2022-09-11T05:54:36.309Z,2.20
2022-09-11T05:57:07.821Z,2.20
2022-09-11T05:59:38.694Z,1.92
2022-09-11T06:02:06.411Z,1.83
2022-09-11T06:04:44.933Z,1.60
2022-09-11T06:07:13.152Z,3.03
2022-09-11T06:09:42.667Z,2.42
2022-09-11T06:12:12.971Z,1.98
2022-09-11T06:14:44.561Z,1.88
2022-09-11T06:17:13.060Z,2.33
2022-09-11T06:19:40.978Z,3.58
2022-09-11T06:22:08.662Z,2.58
2022-09-11T06:24:42.367Z,2.40
2022-09-11T06:27:10.234Z,2.40
2022-09-11T06:29:45.039Z,1.88
2022-09-11T06:32:13.072Z,1.90
2022-09-11T06:34:41.317Z,1.95
2022-09-11T06:37:12.256Z,2.05
2022-09-11T06:42:10.829Z,2.05
2022-09-11T06:44:38.365Z,1.95
2022-09-11T06:47:07.179Z,1.90
2022-09-11T06:49:36.620Z,2.28
2022-09-11T06:52:34.830Z,2.25
2022-09-11T06:55:22.930Z,3.00
2022-09-11T06:57:59.001Z,2.65
2022-09-11T07:00:29.121Z,2.03
2022-09-11T07:02:57.120Z,2.28
2022-09-11T07:05:26.078Z,3.63
2022-09-11T07:07:55.613Z,3.10
2022-09-11T07:10:24.843Z,4.03
2022-09-11T07:12:58.146Z,4.28
2022-09-11T07:15:26.250Z,3.40
2022-09-11T07:17:55.504Z,4.22
2022-09-11T07:20:23.484Z,2.92
2022-09-11T07:22:51.907Z,3.80
2022-09-11T07:25:21.096Z,2.55
2022-09-11T07:27:48.674Z,3.10
2022-09-11T07:30:16.692Z,2.42
2022-09-11T07:32:47.124Z,5.10
2022-09-11T07:35:21.469Z,4.40
2022-09-11T07:37:52.121Z,3.65
2022-09-11T07:40:24.279Z,3.17
2022-09-11T07:42:51.865Z,2.92
2022-09-11T07:45:22.892Z,3.40
2022-09-11T07:47:51.175Z,3.35
2022-09-11T07:50:19.263Z,2.83
2022-09-11T07:52:46.854Z,3.38
2022-09-11T07:55:15.068Z,2.53
2022-09-11T07:57:43.027Z,2.55
2022-09-11T08:00:11.966Z,2.30
2022-09-11T08:03:00.762Z,3.15
2022-09-11T08:05:33.985Z,2.28
2022-09-11T08:08:01.848Z,2.70
2022-09-11T08:10:30.537Z,2.20
2022-09-11T08:13:00.088Z,2.13
2022-09-11T08:15:33.058Z,2.38
2022-09-11T08:18:02.231Z,2.08
2022-09-11T08:20:31.071Z,2.45
2022-09-11T08:22:58.817Z,2.10
2022-09-11T08:25:28.783Z,2.08
2022-09-11T08:27:57.920Z,2.22
2022-09-11T08:30:26.024Z,2.55
2022-09-11T08:32:53.801Z,2.50
2022-09-11T08:35:21.842Z,3.20
2022-09-11T08:37:54.130Z,2.70
2022-09-11T08:40:22.450Z,2.83
2022-09-11T08:42:50.333Z,2.20
2022-09-11T08:45:19.524Z,2.40
2022-09-11T08:47:55.810Z,3.17
2022-09-11T08:50:28.625Z,2.65
2022-09-11T08:52:58.396Z,2.35
2022-09-11T08:55:40.007Z,2.42
2022-09-11T08:58:31.456Z,2.92
2022-09-11T09:00:59.201Z,2.38
2022-09-11T09:03:49.281Z,2.45
2022-09-11T09:06:40.887Z,3.72
2022-09-11T09:09:19.451Z,7.45
2022-09-11T09:11:53.541Z,7.97
2022-09-11T09:14:47.028Z,5.40
2022-09-11T09:17:25.409Z,3.90
2022-09-11T09:19:57.789Z,4.25
2022-09-11T09:22:31.538Z,4.75
2022-09-11T09:25:01.858Z,4.32
2022-09-11T09:27:34.874Z,3.63
2022-09-11T09:30:05.689Z,3.58
2022-09-11T09:32:40.398Z,4.10
2022-09-11T09:35:16.901Z,4.60
2022-09-11T09:37:45.411Z,3.80
2022-09-11T09:40:15.775Z,3.47
2022-09-11T09:43:12.565Z,4.35
2022-09-11T09:46:16.387Z,10.02
2022-09-11T09:48:45.225Z,8.55
2022-09-11T09:51:13.814Z,9.55
2022-09-11T09:54:01.448Z,11.60
2022-09-11T09:56:31.163Z,11.55
2022-09-11T09:59:15.495Z,14.18
2022-09-11T10:01:47.897Z,23.60
2022-09-11T10:04:19.585Z,15.35
2022-09-11T10:06:48.409Z,30.58
2022-09-11T10:09:24.552Z,35.38
2022-09-11T10:12:12.870Z,36.15
2022-09-11T10:14:52.248Z,39.40
2022-09-11T10:17:32.992Z,31.52
2022-09-11T10:20:15.905Z,32.97
2022-09-11T10:22:44.051Z,12.38
2022-09-11T10:25:15.956Z,9.38
2022-09-11T10:28:03.654Z,10.52
2022-09-11T10:30:32.490Z,8.05
2022-09-11T10:33:03.693Z,7.30
2022-09-11T10:35:34.183Z,7.30
2022-09-11T10:38:20.796Z,7.82
2022-09-11T10:41:06.895Z,6.38
2022-09-11T10:43:47.584Z,5.80
2022-09-11T10:46:18.049Z,5.53
2022-09-11T10:49:04.091Z,4.50
2022-09-11T10:51:45.530Z,4.55
2022-09-11T10:54:22.271Z,4.55
2022-09-11T10:57:00.358Z,4.53
2022-09-11T10:59:41.932Z,4.68
2022-09-11T11:04:43.264Z,3.58
2022-09-11T11:07:22.848Z,3.20
2022-09-11T11:10:01.571Z,3.70
2022-09-11T11:12:46.684Z,4.68
2022-09-11T11:15:30.186Z,4.80
2022-09-11T11:18:19.256Z,4.38
2022-09-11T11:20:53.097Z,4.45
2022-09-11T11:23:36.147Z,4.28
2022-09-11T11:26:19.734Z,4.35
2022-09-11T11:28:54.439Z,4.32
2022-09-11T11:31:40.246Z,3.88
2022-09-11T11:34:23.173Z,4.45
2022-09-11T11:37:09.353Z,4.18
2022-09-11T11:39:45.020Z,4.75
2022-09-11T11:42:26.955Z,4.07
2022-09-11T11:44:59.444Z,4.35
2022-09-11T11:47:32.780Z,4.90
2022-09-11T11:50:18.788Z,4.80
2022-09-11T11:53:07.340Z,5.65
2022-09-11T11:55:39.575Z,5.03
2022-09-11T11:58:14.611Z,5.28
2022-09-11T12:00:44.482Z,5.30
2022-09-11T12:03:18.886Z,5.32
2022-09-11T12:05:46.403Z,4.82
2022-09-11T12:08:14.768Z,4.75
2022-09-11T12:10:45.736Z,4.90
2022-09-11T12:13:15.644Z,5.13
2022-09-11T12:16:11.361Z,5.05
2022-09-11T12:18:39.296Z,4.90
2022-09-11T12:21:25.338Z,4.32
2022-09-11T12:24:00.091Z,4.63
2022-09-11T12:26:28.300Z,4.25
2022-09-11T12:29:20.320Z,4.30
2022-09-11T12:31:51.045Z,4.60
2022-09-11T12:34:26.188Z,4.43
2022-09-11T12:36:59.821Z,4.60
2022-09-11T12:39:32.069Z,4.47
2022-09-11T12:42:26.003Z,3.90
2022-09-11T12:44:54.292Z,3.80
2022-09-11T12:47:24.965Z,4.05
2022-09-11T12:50:04.463Z,3.63
2022-09-11T12:52:45.604Z,3.42
2022-09-11T12:55:40.996Z,3.42
2022-09-11T12:58:34.296Z,3.58
2022-09-11T13:01:15.532Z,3.20
2022-09-11T13:04:13.384Z,3.75
2022-09-11T13:06:56.451Z,3.92
2022-09-11T13:09:29.289Z,5.00
2022-09-11T13:11:57.995Z,4.47
2022-09-11T13:14:33.100Z,3.83
2022-09-11T13:17:05.093Z,3.55
2022-09-11T13:19:34.201Z,4.00
2022-09-11T13:22:01.863Z,4.07
2022-09-11T13:24:34.131Z,3.63
2022-09-11T13:27:09.573Z,3.50
2022-09-11T13:29:38.636Z,3.60
2022-09-11T13:32:11.599Z,4.40
2022-09-11T13:34:39.277Z,4.35
2022-09-11T13:37:14.672Z,4.70
2022-09-11T13:39:42.879Z,4.50
2022-09-11T13:42:16.425Z,5.25
2022-09-11T13:44:47.725Z,5.15
2022-09-11T13:47:25.132Z,5.63
2022-09-11T13:50:03.524Z,5.13
2022-09-11T13:52:33.321Z,5.10
2022-09-11T13:55:10.492Z,4.60
2022-09-11T13:57:58.686Z,4.85
2022-09-11T14:00:55.883Z,4.80
2022-09-11T14:03:32.345Z,5.10
2022-09-11T14:06:01.386Z,5.63
2022-09-11T14:08:36.529Z,4.65
2022-09-11T14:11:13.475Z,4.93
2022-09-11T14:13:51.227Z,4.90
2022-09-11T14:16:29.509Z,5.63
2022-09-11T14:19:13.453Z,5.28
2022-09-11T14:21:45.992Z,5.30
2022-09-11T14:24:26.174Z,5.30
2022-09-11T14:26:53.776Z,5.53
2022-09-11T14:29:24.428Z,5.85
2022-09-11T14:31:53.276Z,5.78
2022-09-11T14:34:30.185Z,5.90
2022-09-11T14:37:03.273Z,5.75
2022-09-11T14:39:37.049Z,6.75
2022-09-11T14:42:10.439Z,6.28
2022-09-11T14:44:40.439Z,6.70
2022-09-11T14:47:13.848Z,6.68
2022-09-11T14:49:41.460Z,7.25
2022-09-11T14:52:10.336Z,7.78
2022-09-11T14:54:37.860Z,8.43
2022-09-11T14:57:15.200Z,8.18
2022-09-11T14:59:45.641Z,7.93
2022-09-11T15:02:14.353Z,8.45
2022-09-11T15:04:41.892Z,8.52
2022-09-11T15:07:11.992Z,7.72
2022-09-11T15:09:40.274Z,7.60
2022-09-11T15:12:08.442Z,7.28
2022-09-11T15:14:55.637Z,6.40
2022-09-11T15:17:25.495Z,7.78
2022-09-11T15:19:53.597Z,7.88
2022-09-11T15:22:21.137Z,6.80
2022-09-11T15:24:48.999Z,6.28
2022-09-11T15:27:17.303Z,6.10
2022-09-11T15:29:45.397Z,6.55
2022-09-11T15:32:14.579Z,6.57
2022-09-11T15:34:42.527Z,7.10
2022-09-11T15:37:11.825Z,7.65
2022-09-11T15:39:39.608Z,7.63
2022-09-11T15:42:07.654Z,7.57
2022-09-11T15:44:35.420Z,7.30
2022-09-11T15:47:04.364Z,8.52
2022-09-11T15:49:33.205Z,7.63
2022-09-11T15:52:01.261Z,7.78
2022-09-11T15:54:29.649Z,7.90
2022-09-11T15:56:57.215Z,7.72
2022-09-11T15:59:24.750Z,7.95
2022-09-11T16:01:52.433Z,6.90
2022-09-11T16:04:21.372Z,7.18
2022-09-11T16:06:50.218Z,7.65
2022-09-11T16:09:19.953Z,7.75
2022-09-11T16:11:50.927Z,7.47
2022-09-11T16:14:27.235Z,6.90
2022-09-11T16:16:56.360Z,7.35
2022-09-11T16:19:27.587Z,8.05
2022-09-11T16:24:25.588Z,8.23
2022-09-11T16:26:56.166Z,8.82
2022-09-11T16:29:25.941Z,8.70
2022-09-11T16:31:56.912Z,8.68
2022-09-11T16:34:24.361Z,8.20
2022-09-11T16:36:52.391Z,8.15
2022-09-11T16:39:19.955Z,8.25
2022-09-11T16:41:47.847Z,7.80
2022-09-11T16:44:16.395Z,8.45
2022-09-11T16:46:44.434Z,8.15
2022-09-11T16:49:16.815Z,7.78
2022-09-11T16:51:45.285Z,8.07
2022-09-11T16:54:13.307Z,8.07
2022-09-11T16:56:45.754Z,8.05
2022-09-11T16:59:13.669Z,8.25
2022-09-11T17:01:41.842Z,7.20
2022-09-11T17:08:46.432Z,7.65
2022-09-11T17:11:16.452Z,7.57
2022-09-11T17:13:44.751Z,6.90
2022-09-11T17:16:20.941Z,6.13
2022-09-11T17:18:49.659Z,6.85
2022-09-11T17:21:17.480Z,7.07
2022-09-11T17:23:45.458Z,7.35
2022-09-11T17:26:14.144Z,6.75
2022-09-11T17:28:42.932Z,6.85
2022-09-11T17:31:10.988Z,6.68
2022-09-11T17:33:40.380Z,7.32
2022-09-11T17:36:10.041Z,7.10
2022-09-11T17:38:38.568Z,8.35
2022-09-11T17:41:07.200Z,7.18
2022-09-11T17:43:35.440Z,7.07
2022-09-11T17:46:08.328Z,8.18
2022-09-11T17:48:36.388Z,7.70
2022-09-11T17:51:08.189Z,8.23
2022-09-11T17:53:38.490Z,9.18
2022-09-11T17:56:09.847Z,7.20
2022-09-11T17:58:38.538Z,7.57
2022-09-11T18:01:06.329Z,7.65
2022-09-11T18:03:34.403Z,8.13
2022-09-11T18:06:02.779Z,9.43
2022-09-11T18:08:32.956Z,11.30
2022-09-11T18:11:01.300Z,15.07
2022-09-11T18:13:31.969Z,9.27
2022-09-11T18:16:00.022Z,12.95
2022-09-11T18:18:27.858Z,11.40
2022-09-11T18:20:55.629Z,12.52
2022-09-11T18:23:23.411Z,11.43
2022-09-11T18:25:51.693Z,11.38
2022-09-11T18:28:20.101Z,11.00
2022-09-11T18:30:49.383Z,11.52
2022-09-11T18:33:17.410Z,11.98
2022-09-11T18:35:46.743Z,12.68
2022-09-11T18:38:14.441Z,12.95
2022-09-11T18:40:41.977Z,12.30
2022-09-11T18:43:09.519Z,11.80
2022-09-11T18:45:37.129Z,11.40
2022-09-11T18:48:05.121Z,12.65
2022-09-11T18:50:32.721Z,11.80
2022-09-11T18:53:01.211Z,12.43
2022-09-11T18:55:29.530Z,12.55
2022-09-11T18:57:57.329Z,11.68
2022-09-11T19:00:24.859Z,11.60
2022-09-11T19:02:54.871Z,12.35
2022-09-11T19:05:23.285Z,12.20
2022-09-11T19:07:51.022Z,13.30
2022-09-11T19:10:18.652Z,11.57
2022-09-11T19:12:48.199Z,10.80
2022-09-11T19:15:16.993Z,11.50
2022-09-11T19:17:47.750Z,11.10
2022-09-11T19:20:16.565Z,10.93
2022-09-11T19:22:44.492Z,10.68
2022-09-11T19:25:12.271Z,10.88
2022-09-11T19:27:39.922Z,10.88
2022-09-11T19:30:08.858Z,10.48
2022-09-11T19:32:37.504Z,10.75
2022-09-11T19:35:05.387Z,11.57
2022-09-11T19:37:33.739Z,9.93
2022-09-11T19:40:01.501Z,10.68
2022-09-11T19:42:29.460Z,10.95
2022-09-11T19:44:56.926Z,10.27
2022-09-11T19:47:25.668Z,11.85
2022-09-11T19:49:54.430Z,9.93
2022-09-11T19:52:22.140Z,10.45
2022-09-11T19:54:49.810Z,9.90
2022-09-11T19:57:18.040Z,10.10
2022-09-11T19:59:45.547Z,8.75
2022-09-11T20:02:13.076Z,9.85
2022-09-11T20:04:40.664Z,9.50
2022-09-11T20:07:08.147Z,9.40
2022-09-11T20:09:35.649Z,8.95
2022-09-11T20:12:03.525Z,8.48
2022-09-11T20:14:31.333Z,8.43
2022-09-11T20:17:01.195Z,8.98
2022-09-11T20:19:29.045Z,7.97
2022-09-11T20:21:56.783Z,7.03
2022-09-11T20:24:24.413Z,7.15
2022-09-11T20:26:53.307Z,7.53
2022-09-11T20:29:20.761Z,7.82
2022-09-11T20:31:51.239Z,7.20
2022-09-11T20:34:19.503Z,7.13
2022-09-11T20:36:47.180Z,5.80
2022-09-11T20:39:15.406Z,6.43
2022-09-11T20:41:43.199Z,6.28
2022-09-11T20:44:10.755Z,6.80
2022-09-11T20:46:40.146Z,6.47
2022-09-11T20:49:07.801Z,6.72
2022-09-11T20:51:35.468Z,6.50
2022-09-11T20:54:03.032Z,5.80
2022-09-11T20:56:30.824Z,6.20
2022-09-11T20:59:00.685Z,6.10
2022-09-11T21:01:32.503Z,6.85
2022-09-11T21:04:01.082Z,6.05
2022-09-11T21:06:30.653Z,6.25
2022-09-11T21:09:00.030Z,6.53
2022-09-11T21:11:28.390Z,6.35
2022-09-11T21:13:56.044Z,5.78
2022-09-11T21:16:24.266Z,6.20
2022-09-11T21:18:57.422Z,5.05
2022-09-11T21:21:25.728Z,6.65
2022-09-11T21:23:57.072Z,5.70
2022-09-11T21:26:26.400Z,5.25
2022-09-11T21:28:53.998Z,5.80
2022-09-11T21:31:21.548Z,6.05
2022-09-11T21:33:49.173Z,5.43
2022-09-11T21:36:16.874Z,5.60
2022-09-11T21:38:44.431Z,5.15
2022-09-11T21:41:12.353Z,5.43
2022-09-11T21:43:39.944Z,6.13
2022-09-11T21:46:08.097Z,5.40
2022-09-11T21:48:37.056Z,5.30
2022-09-11T21:51:15.736Z,5.75
2022-09-11T21:53:45.028Z,5.47
2022-09-11T21:56:20.674Z,6.00
2022-09-11T21:58:48.948Z,5.40
2022-09-11T22:01:16.573Z,5.50
2022-09-11T22:03:45.048Z,5.80
2022-09-11T22:06:14.936Z,5.55
2022-09-11T22:08:43.214Z,5.25
2022-09-11T22:11:11.808Z,5.20
2022-09-11T22:13:39.911Z,5.43
2022-09-11T22:16:09.774Z,5.28
2022-09-11T22:18:38.162Z,5.47
2022-09-11T22:21:05.910Z,5.85
2022-09-11T22:23:34.149Z,5.82
2022-09-11T22:26:02.113Z,4.75
2022-09-11T22:28:30.018Z,5.43
2022-09-11T22:30:57.564Z,5.38
2022-09-11T22:33:25.476Z,6.00
2022-09-11T22:35:52.993Z,6.05
2022-09-11T22:38:20.485Z,5.43
2022-09-11T22:40:57.136Z,4.93
2022-09-11T22:43:25.109Z,5.38
2022-09-11T22:45:53.752Z,5.35
2022-09-11T22:48:21.608Z,5.47
2022-09-11T22:50:49.558Z,5.22
2022-09-11T22:53:17.072Z,5.60
2022-09-11T22:55:45.192Z,5.68
2022-09-11T22:58:12.736Z,5.75
2022-09-11T23:00:40.998Z,5.20
2022-09-11T23:03:08.675Z,5.88
2022-09-11T23:05:54.710Z,5.55
2022-09-11T23:08:26.324Z,6.03
2022-09-11T23:10:54.375Z,4.95
2022-09-11T23:13:22.224Z,5.88
2022-09-11T23:15:49.809Z,6.07
2022-09-11T23:18:17.512Z,5.90
2022-09-11T23:20:45.633Z,5.22
2022-09-11T23:23:13.351Z,5.80
2022-09-11T23:25:42.312Z,5.45
2022-09-11T23:28:09.800Z,6.32
2022-09-11T23:30:40.728Z,5.78
2022-09-11T23:33:08.237Z,4.38
2022-09-11T23:35:39.594Z,6.88
2022-09-11T23:38:07.522Z,6.25
2022-09-11T23:40:35.008Z,6.80
2022-09-11T23:43:02.495Z,6.00
2022-09-11T23:45:30.047Z,6.78
2022-09-11T23:47:57.622Z,6.05
2022-09-11T23:50:25.223Z,6.18
2022-09-11T23:52:52.830Z,6.53
2022-09-11T23:55:21.211Z,6.57
2022-09-11T23:57:53.504Z,6.70
